sensor_id;sensor_type;location;lat;lon;timestamp;P1;durP1;ratioP1;P2;durP2;ratioP2
39860;SDS011;25529;49.346;20.886;2022-08-26T00:01:35;27.40;;;8.05;;
39860;SDS011;25529;49.346;20.886;2022-08-26T00:04:01;26.27;;;8.27;;
39860;SDS011;25529;49.346;20.886;2022-08-26T00:06:27;25.48;;;8.48;;
39860;SDS011;25529;49.346;20.886;2022-08-26T00:08:52;21.52;;;8.05;;
39860;SDS011;25529;49.346;20.886;2022-08-26T00:11:18;23.38;;;8.27;;
39860;SDS011;25529;49.346;20.886;2022-08-26T00:13:43;25.17;;;8.40;;
39860;SDS011;25529;49.346;20.886;2022-08-26T00:16:09;23.85;;;7.90;;
39860;SDS011;25529;49.346;20.886;2022-08-26T00:18:35;26.58;;;7.82;;
39860;SDS011;25529;49.346;20.886;2022-08-26T00:21:00;25.25;;;7.78;;
39860;SDS011;25529;49.346;20.886;2022-08-26T00:23:26;21.55;;;7.82;;
39860;SDS011;25529;49.346;20.886;2022-08-26T00:25:51;27.85;;;8.00;;
39860;SDS011;25529;49.346;20.886;2022-08-26T00:28:17;23.40;;;7.88;;
39860;SDS011;25529;49.346;20.886;2022-08-26T00:30:42;23.38;;;8.10;;
39860;SDS011;25529;49.346;20.886;2022-08-26T00:33:07;24.77;;;7.85;;
39860;SDS011;25529;49.346;20.886;2022-08-26T00:35:33;22.15;;;8.13;;
39860;SDS011;25529;49.346;20.886;2022-08-26T00:37:59;21.88;;;8.40;;
39860;SDS011;25529;49.346;20.886;2022-08-26T00:40:29;27.75;;;7.55;;
39860;SDS011;25529;49.346;20.886;2022-08-26T00:42:55;24.73;;;8.15;;
39860;SDS011;25529;49.346;20.886;2022-08-26T00:45:21;21.95;;;7.65;;
39860;SDS011;25529;49.346;20.886;2022-08-26T00:47:56;24.80;;;9.00;;
39860;SDS011;25529;49.346;20.886;2022-08-26T00:50:29;21.63;;;7.95;;
39860;SDS011;25529;49.346;20.886;2022-08-26T00:52:56;21.73;;;8.18;;
39860;SDS011;25529;49.346;20.886;2022-08-26T00:55:38;22.77;;;7.95;;
39860;SDS011;25529;49.346;20.886;2022-08-26T01:00:30;24.40;;;8.57;;
39860;SDS011;25529;49.346;20.886;2022-08-26T01:02:56;24.50;;;7.55;;
39860;SDS011;25529;49.346;20.886;2022-08-26T01:05:23;22.45;;;7.90;;
39860;SDS011;25529;49.346;20.886;2022-08-26T01:07:49;24.23;;;7.72;;
39860;SDS011;25529;49.346;20.886;2022-08-26T01:10:16;20.58;;;7.88;;
39860;SDS011;25529;49.346;20.886;2022-08-26T01:12:47;21.52;;;7.80;;
39860;SDS011;25529;49.346;20.886;2022-08-26T01:15:14;28.05;;;8.30;;
39860;SDS011;25529;49.346;20.886;2022-08-26T01:17:41;24.45;;;8.38;;
39860;SDS011;25529;49.346;20.886;2022-08-26T01:20:27;28.40;;;8.05;;
39860;SDS011;25529;49.346;20.886;2022-08-26T01:22:58;24.02;;;7.88;;
39860;SDS011;25529;49.346;20.886;2022-08-26T01:25:24;22.92;;;8.00;;
39860;SDS011;25529;49.346;20.886;2022-08-26T01:27:51;23.63;;;8.32;;
39860;SDS011;25529;49.346;20.886;2022-08-26T01:30:17;24.08;;;7.88;;
39860;SDS011;25529;49.346;20.886;2022-08-26T01:32:43;21.60;;;8.10;;
39860;SDS011;25529;49.346;20.886;2022-08-26T01:35:09;22.13;;;7.68;;
39860;SDS011;25529;49.346;20.886;2022-08-26T01:37:35;22.95;;;8.57;;
39860;SDS011;25529;49.346;20.886;2022-08-26T01:40:03;26.40;;;7.85;;
39860;SDS011;25529;49.346;20.886;2022-08-26T01:42:28;26.70;;;7.57;;
39860;SDS011;25529;49.346;20.886;2022-08-26T01:45:10;22.83;;;7.85;;
39860;SDS011;25529;49.346;20.886;2022-08-26T01:47:37;20.70;;;7.28;;
39860;SDS011;25529;49.346;20.886;2022-08-26T01:50:07;21.10;;;7.60;;
39860;SDS011;25529;49.346;20.886;2022-08-26T01:52:34;21.95;;;7.85;;
39860;SDS011;25529;49.346;20.886;2022-08-26T01:55:00;22.50;;;8.07;;
39860;SDS011;25529;49.346;20.886;2022-08-26T01:57:26;23.20;;;8.05;;
39860;SDS011;25529;49.346;20.886;2022-08-26T01:59:53;20.95;;;6.90;;
39860;SDS011;25529;49.346;20.886;2022-08-26T02:02:20;24.23;;;7.97;;
39860;SDS011;25529;49.346;20.886;2022-08-26T02:04:47;24.33;;;7.93;;
39860;SDS011;25529;49.346;20.886;2022-08-26T02:07:13;25.60;;;8.07;;
39860;SDS011;25529;49.346;20.886;2022-08-26T02:09:40;24.25;;;8.18;;
39860;SDS011;25529;49.346;20.886;2022-08-26T02:12:05;21.38;;;8.20;;
39860;SDS011;25529;49.346;20.886;2022-08-26T02:14:39;23.58;;;8.15;;
39860;SDS011;25529;49.346;20.886;2022-08-26T02:17:08;25.17;;;8.07;;
39860;SDS011;25529;49.346;20.886;2022-08-26T02:19:34;24.95;;;7.80;;
39860;SDS011;25529;49.346;20.886;2022-08-26T02:22:05;23.45;;;8.30;;
39860;SDS011;25529;49.346;20.886;2022-08-26T02:24:45;25.13;;;8.02;;
39860;SDS011;25529;49.346;20.886;2022-08-26T02:27:14;22.08;;;7.75;;
39860;SDS011;25529;49.346;20.886;2022-08-26T02:29:41;19.38;;;7.35;;
39860;SDS011;25529;49.346;20.886;2022-08-26T02:32:09;23.42;;;7.85;;
39860;SDS011;25529;49.346;20.886;2022-08-26T02:34:34;22.50;;;8.23;;
39860;SDS011;25529;49.346;20.886;2022-08-26T02:37:02;22.25;;;7.90;;
39860;SDS011;25529;49.346;20.886;2022-08-26T02:39:28;22.52;;;7.93;;
39860;SDS011;25529;49.346;20.886;2022-08-26T02:41:53;23.48;;;7.53;;
39860;SDS011;25529;49.346;20.886;2022-08-26T02:44:19;21.83;;;7.82;;
39860;SDS011;25529;49.346;20.886;2022-08-26T02:46:44;21.17;;;7.68;;
39860;SDS011;25529;49.346;20.886;2022-08-26T02:49:10;25.13;;;7.72;;
39860;SDS011;25529;49.346;20.886;2022-08-26T02:51:38;21.85;;;7.88;;
39860;SDS011;25529;49.346;20.886;2022-08-26T02:54:03;26.55;;;7.88;;
39860;SDS011;25529;49.346;20.886;2022-08-26T02:56:29;19.65;;;7.53;;
39860;SDS011;25529;49.346;20.886;2022-08-26T02:58:54;24.98;;;8.32;;
39860;SDS011;25529;49.346;20.886;2022-08-26T03:01:25;21.48;;;8.55;;
39860;SDS011;25529;49.346;20.886;2022-08-26T03:03:50;22.98;;;8.25;;
39860;SDS011;25529;49.346;20.886;2022-08-26T03:06:16;22.83;;;8.00;;
39860;SDS011;25529;49.346;20.886;2022-08-26T03:08:42;24.65;;;7.95;;
39860;SDS011;25529;49.346;20.886;2022-08-26T03:11:07;24.67;;;7.85;;
39860;SDS011;25529;49.346;20.886;2022-08-26T03:13:33;20.77;;;7.43;;
39860;SDS011;25529;49.346;20.886;2022-08-26T03:16:01;26.27;;;8.27;;
39860;SDS011;25529;49.346;20.886;2022-08-26T03:18:27;26.17;;;7.38;;
39860;SDS011;25529;49.346;20.886;2022-08-26T03:20:53;19.17;;;7.32;;
39860;SDS011;25529;49.346;20.886;2022-08-26T03:23:18;23.70;;;8.15;;
39860;SDS011;25529;49.346;20.886;2022-08-26T03:25:47;21.80;;;7.88;;
39860;SDS011;25529;49.346;20.886;2022-08-26T03:28:12;22.73;;;7.90;;
39860;SDS011;25529;49.346;20.886;2022-08-26T03:30:38;23.05;;;7.88;;
39860;SDS011;25529;49.346;20.886;2022-08-26T03:33:07;23.98;;;8.13;;
39860;SDS011;25529;49.346;20.886;2022-08-26T03:35:35;25.05;;;7.85;;
39860;SDS011;25529;49.346;20.886;2022-08-26T03:38:01;21.70;;;7.60;;
39860;SDS011;25529;49.346;20.886;2022-08-26T03:40:30;24.45;;;7.50;;
39860;SDS011;25529;49.346;20.886;2022-08-26T03:42:58;23.20;;;7.72;;
39860;SDS011;25529;49.346;20.886;2022-08-26T03:45:23;23.48;;;7.78;;
39860;SDS011;25529;49.346;20.886;2022-08-26T03:47:49;22.05;;;7.20;;
39860;SDS011;25529;49.346;20.886;2022-08-26T03:50:15;23.52;;;8.15;;
39860;SDS011;25529;49.346;20.886;2022-08-26T03:52:41;21.20;;;7.28;;
39860;SDS011;25529;49.346;20.886;2022-08-26T03:55:07;22.08;;;7.55;;
39860;SDS011;25529;49.346;20.886;2022-08-26T03:57:33;25.45;;;8.27;;
39860;SDS011;25529;49.346;20.886;2022-08-26T03:59:58;23.33;;;7.45;;
39860;SDS011;25529;49.346;20.886;2022-08-26T04:02:24;21.08;;;7.50;;
39860;SDS011;25529;49.346;20.886;2022-08-26T04:04:49;26.17;;;8.40;;
39860;SDS011;25529;49.346;20.886;2022-08-26T04:07:15;22.73;;;7.45;;
39860;SDS011;25529;49.346;20.886;2022-08-26T04:09:40;23.05;;;7.68;;
39860;SDS011;25529;49.346;20.886;2022-08-26T04:12:06;21.42;;;7.65;;
39860;SDS011;25529;49.346;20.886;2022-08-26T04:14:34;21.13;;;7.35;;
39860;SDS011;25529;49.346;20.886;2022-08-26T04:17:01;22.58;;;8.10;;
39860;SDS011;25529;49.346;20.886;2022-08-26T04:19:29;20.45;;;7.35;;
39860;SDS011;25529;49.346;20.886;2022-08-26T04:21:55;22.42;;;7.28;;
39860;SDS011;25529;49.346;20.886;2022-08-26T04:24:21;20.83;;;7.25;;
39860;SDS011;25529;49.346;20.886;2022-08-26T04:26:47;23.65;;;7.60;;
39860;SDS011;25529;49.346;20.886;2022-08-26T04:29:23;21.65;;;7.38;;
39860;SDS011;25529;49.346;20.886;2022-08-26T04:31:52;21.35;;;7.95;;
39860;SDS011;25529;49.346;20.886;2022-08-26T04:34:21;23.87;;;8.17;;
39860;SDS011;25529;49.346;20.886;2022-08-26T04:36:47;25.05;;;8.25;;
39860;SDS011;25529;49.346;20.886;2022-08-26T04:39:12;25.58;;;8.30;;
39860;SDS011;25529;49.346;20.886;2022-08-26T04:41:41;21.20;;;7.80;;
39860;SDS011;25529;49.346;20.886;2022-08-26T04:44:09;21.95;;;7.45;;
39860;SDS011;25529;49.346;20.886;2022-08-26T04:46:35;23.50;;;8.55;;
39860;SDS011;25529;49.346;20.886;2022-08-26T04:49:01;22.67;;;8.27;;
39860;SDS011;25529;49.346;20.886;2022-08-26T04:51:27;22.67;;;7.85;;
39860;SDS011;25529;49.346;20.886;2022-08-26T04:53:56;20.20;;;7.88;;
39860;SDS011;25529;49.346;20.886;2022-08-26T04:56:25;23.55;;;8.02;;
39860;SDS011;25529;49.346;20.886;2022-08-26T04:58:51;21.55;;;7.32;;
39860;SDS011;25529;49.346;20.886;2022-08-26T05:01:17;19.40;;;7.10;;
39860;SDS011;25529;49.346;20.886;2022-08-26T05:03:42;22.85;;;7.38;;
39860;SDS011;25529;49.346;20.886;2022-08-26T05:06:11;19.45;;;7.07;;
39860;SDS011;25529;49.346;20.886;2022-08-26T05:08:36;20.60;;;7.55;;
39860;SDS011;25529;49.346;20.886;2022-08-26T05:11:03;19.63;;;7.60;;
39860;SDS011;25529;49.346;20.886;2022-08-26T05:13:28;19.77;;;7.13;;
39860;SDS011;25529;49.346;20.886;2022-08-26T05:16:00;22.52;;;7.85;;
39860;SDS011;25529;49.346;20.886;2022-08-26T05:18:26;24.20;;;7.65;;
39860;SDS011;25529;49.346;20.886;2022-08-26T05:20:54;22.77;;;7.60;;
39860;SDS011;25529;49.346;20.886;2022-08-26T05:23:20;19.65;;;7.15;;
39860;SDS011;25529;49.346;20.886;2022-08-26T05:25:47;21.77;;;7.50;;
39860;SDS011;25529;49.346;20.886;2022-08-26T05:28:16;24.02;;;7.50;;
39860;SDS011;25529;49.346;20.886;2022-08-26T05:30:42;23.60;;;10.15;;
39860;SDS011;25529;49.346;20.886;2022-08-26T05:33:08;25.20;;;9.40;;
39860;SDS011;25529;49.346;20.886;2022-08-26T05:35:34;21.17;;;7.75;;
39860;SDS011;25529;49.346;20.886;2022-08-26T05:38:03;24.67;;;7.88;;
39860;SDS011;25529;49.346;20.886;2022-08-26T05:40:32;21.35;;;7.95;;
39860;SDS011;25529;49.346;20.886;2022-08-26T05:42:58;21.42;;;7.53;;
39860;SDS011;25529;49.346;20.886;2022-08-26T05:45:24;19.45;;;7.25;;
39860;SDS011;25529;49.346;20.886;2022-08-26T05:47:50;20.40;;;7.32;;
39860;SDS011;25529;49.346;20.886;2022-08-26T05:50:15;20.75;;;6.93;;
39860;SDS011;25529;49.346;20.886;2022-08-26T05:52:45;18.98;;;7.13;;
39860;SDS011;25529;49.346;20.886;2022-08-26T05:55:11;22.40;;;7.47;;
39860;SDS011;25529;49.346;20.886;2022-08-26T05:57:36;22.83;;;6.95;;
39860;SDS011;25529;49.346;20.886;2022-08-26T06:00:03;19.98;;;7.13;;
39860;SDS011;25529;49.346;20.886;2022-08-26T06:02:29;20.75;;;7.38;;
39860;SDS011;25529;49.346;20.886;2022-08-26T06:04:54;23.17;;;7.60;;
39860;SDS011;25529;49.346;20.886;2022-08-26T06:07:19;20.92;;;7.43;;
39860;SDS011;25529;49.346;20.886;2022-08-26T06:10:05;21.08;;;7.18;;
39860;SDS011;25529;49.346;20.886;2022-08-26T06:12:30;22.52;;;7.43;;
39860;SDS011;25529;49.346;20.886;2022-08-26T06:14:58;21.50;;;7.20;;
39860;SDS011;25529;49.346;20.886;2022-08-26T06:17:23;21.20;;;7.78;;
39860;SDS011;25529;49.346;20.886;2022-08-26T06:19:49;21.35;;;7.68;;
39860;SDS011;25529;49.346;20.886;2022-08-26T06:22:15;20.67;;;7.90;;
39860;SDS011;25529;49.346;20.886;2022-08-26T06:25:00;20.27;;;7.20;;
39860;SDS011;25529;49.346;20.886;2022-08-26T06:27:44;23.55;;;7.93;;
39860;SDS011;25529;49.346;20.886;2022-08-26T06:30:10;26.05;;;12.55;;
39860;SDS011;25529;49.346;20.886;2022-08-26T06:32:35;23.88;;;10.60;;
39860;SDS011;25529;49.346;20.886;2022-08-26T06:35:01;20.20;;;8.23;;
39860;SDS011;25529;49.346;20.886;2022-08-26T06:37:28;19.58;;;7.55;;
39860;SDS011;25529;49.346;20.886;2022-08-26T06:39:54;20.38;;;7.15;;
39860;SDS011;25529;49.346;20.886;2022-08-26T06:42:22;21.73;;;7.13;;
39860;SDS011;25529;49.346;20.886;2022-08-26T06:44:47;18.58;;;7.57;;
39860;SDS011;25529;49.346;20.886;2022-08-26T06:47:15;26.27;;;7.80;;
39860;SDS011;25529;49.346;20.886;2022-08-26T06:52:57;21.00;;;8.50;;
39860;SDS011;25529;49.346;20.886;2022-08-26T06:55:32;20.63;;;7.68;;
39860;SDS011;25529;49.346;20.886;2022-08-26T07:01:20;19.92;;;7.55;;
39860;SDS011;25529;49.346;20.886;2022-08-26T07:04:06;20.63;;;7.70;;
39860;SDS011;25529;49.346;20.886;2022-08-26T07:06:34;22.17;;;7.88;;
39860;SDS011;25529;49.346;20.886;2022-08-26T07:09:00;19.10;;;7.28;;
39860;SDS011;25529;49.346;20.886;2022-08-26T07:11:28;19.88;;;7.40;;
39860;SDS011;25529;49.346;20.886;2022-08-26T08:17:19;20.98;;;8.55;;
39860;SDS011;25529;49.346;20.886;2022-08-26T08:19:45;19.67;;;8.20;;
39860;SDS011;25529;49.346;20.886;2022-08-26T08:28:09;19.38;;;7.55;;
39860;SDS011;25529;49.346;20.886;2022-08-26T08:30:36;19.45;;;7.32;;
39860;SDS011;25529;49.346;20.886;2022-08-26T08:33:02;19.60;;;7.30;;
39860;SDS011;25529;49.346;20.886;2022-08-26T08:35:27;20.15;;;7.88;;
39860;SDS011;25529;49.346;20.886;2022-08-26T08:37:56;18.55;;;7.20;;
39860;SDS011;25529;49.346;20.886;2022-08-26T08:40:22;19.83;;;7.03;;
39860;SDS011;25529;49.346;20.886;2022-08-26T08:43:11;18.38;;;7.05;;
39860;SDS011;25529;49.346;20.886;2022-08-26T08:48:46;19.83;;;6.47;;
39860;SDS011;25529;49.346;20.886;2022-08-26T08:53:44;18.77;;;6.65;;
39860;SDS011;25529;49.346;20.886;2022-08-26T08:59:19;19.95;;;7.00;;
39860;SDS011;25529;49.346;20.886;2022-08-26T09:01:59;17.00;;;6.72;;
39860;SDS011;25529;49.346;20.886;2022-08-26T09:07:22;19.50;;;6.88;;
39860;SDS011;25529;49.346;20.886;2022-08-26T09:12:38;20.60;;;7.03;;
39860;SDS011;25529;49.346;20.886;2022-08-26T09:15:10;20.20;;;7.05;;
39860;SDS011;25529;49.346;20.886;2022-08-26T09:17:41;23.15;;;7.25;;
39860;SDS011;25529;49.346;20.886;2022-08-26T09:22:55;19.00;;;6.93;;
39860;SDS011;25529;49.346;20.886;2022-08-26T09:25:20;21.05;;;6.82;;
39860;SDS011;25529;49.346;20.886;2022-08-26T09:27:47;19.35;;;6.10;;
39860;SDS011;25529;49.346;20.886;2022-08-26T09:30:23;19.10;;;6.40;;
39860;SDS011;25529;49.346;20.886;2022-08-26T09:33:03;21.33;;;6.53;;
39860;SDS011;25529;49.346;20.886;2022-08-26T09:35:33;20.05;;;5.95;;
39860;SDS011;25529;49.346;20.886;2022-08-26T09:38:01;19.33;;;5.88;;
39860;SDS011;25529;49.346;20.886;2022-08-26T09:45:38;19.60;;;5.22;;
39860;SDS011;25529;49.346;20.886;2022-08-26T09:48:07;14.07;;;5.13;;
39860;SDS011;25529;49.346;20.886;2022-08-26T09:53:17;18.00;;;4.68;;
39860;SDS011;25529;49.346;20.886;2022-08-26T09:55:44;18.48;;;5.55;;
39860;SDS011;25529;49.346;20.886;2022-08-26T09:58:14;16.95;;;5.95;;
39860;SDS011;25529;49.346;20.886;2022-08-26T10:00:52;15.65;;;4.82;;
39860;SDS011;25529;49.346;20.886;2022-08-26T10:03:29;16.80;;;5.45;;
39860;SDS011;25529;49.346;20.886;2022-08-26T10:06:02;19.27;;;5.30;;
39860;SDS011;25529;49.346;20.886;2022-08-26T10:08:32;19.55;;;4.95;;
39860;SDS011;25529;49.346;20.886;2022-08-26T10:11:01;15.38;;;4.78;;
39860;SDS011;25529;49.346;20.886;2022-08-26T10:13:32;15.65;;;4.90;;
39860;SDS011;25529;49.346;20.886;2022-08-26T10:16:00;15.27;;;5.15;;
39860;SDS011;25529;49.346;20.886;2022-08-26T10:18:29;17.52;;;5.25;;
39860;SDS011;25529;49.346;20.886;2022-08-26T10:21:41;17.63;;;5.28;;
39860;SDS011;25529;49.346;20.886;2022-08-26T10:26:40;14.43;;;4.78;;
39860;SDS011;25529;49.346;20.886;2022-08-26T10:29:19;15.10;;;4.38;;
39860;SDS011;25529;49.346;20.886;2022-08-26T10:34:23;12.25;;;4.40;;
39860;SDS011;25529;49.346;20.886;2022-08-26T10:36:56;12.07;;;4.53;;
39860;SDS011;25529;49.346;20.886;2022-08-26T10:39:25;14.00;;;4.20;;
39860;SDS011;25529;49.346;20.886;2022-08-26T10:41:56;15.50;;;4.25;;
39860;SDS011;25529;49.346;20.886;2022-08-26T10:44:22;14.55;;;4.55;;
39860;SDS011;25529;49.346;20.886;2022-08-26T10:46:58;13.10;;;4.68;;
39860;SDS011;25529;49.346;20.886;2022-08-26T10:49:25;16.13;;;4.68;;
39860;SDS011;25529;49.346;20.886;2022-08-26T10:59:39;12.88;;;4.47;;
39860;SDS011;25529;49.346;20.886;2022-08-26T11:05:19;27.20;;;7.78;;
39860;SDS011;25529;49.346;20.886;2022-08-26T11:07:47;20.83;;;5.70;;
39860;SDS011;25529;49.346;20.886;2022-08-26T11:12:53;15.73;;;4.63;;
39860;SDS011;25529;49.346;20.886;2022-08-26T11:18:06;16.98;;;4.68;;
39860;SDS011;25529;49.346;20.886;2022-08-26T11:20:37;15.65;;;4.50;;
39860;SDS011;25529;49.346;20.886;2022-08-26T11:28:47;15.13;;;4.30;;
39860;SDS011;25529;49.346;20.886;2022-08-26T11:34:11;18.27;;;4.70;;
39860;SDS011;25529;49.346;20.886;2022-08-26T11:39:15;13.43;;;4.30;;
39860;SDS011;25529;49.346;20.886;2022-08-26T11:41:47;12.30;;;4.30;;
39860;SDS011;25529;49.346;20.886;2022-08-26T11:47:46;16.40;;;4.30;;
39860;SDS011;25529;49.346;20.886;2022-08-26T11:50:20;15.13;;;4.35;;
39860;SDS011;25529;49.346;20.886;2022-08-26T11:53:05;15.85;;;4.40;;
39860;SDS011;25529;49.346;20.886;2022-08-26T11:55:32;16.30;;;4.35;;
39860;SDS011;25529;49.346;20.886;2022-08-26T11:57:59;13.75;;;4.05;;
39860;SDS011;25529;49.346;20.886;2022-08-26T12:00:27;16.95;;;4.45;;
39860;SDS011;25529;49.346;20.886;2022-08-26T12:02:54;15.43;;;4.32;;
39860;SDS011;25529;49.346;20.886;2022-08-26T12:05:25;15.50;;;4.38;;
39860;SDS011;25529;49.346;20.886;2022-08-26T12:07:52;18.55;;;4.30;;
39860;SDS011;25529;49.346;20.886;2022-08-26T12:10:29;14.82;;;4.00;;
39860;SDS011;25529;49.346;20.886;2022-08-26T12:12:58;20.00;;;4.50;;
39860;SDS011;25529;49.346;20.886;2022-08-26T12:15:24;16.58;;;4.40;;
39860;SDS011;25529;49.346;20.886;2022-08-26T12:17:50;15.27;;;4.10;;
39860;SDS011;25529;49.346;20.886;2022-08-26T12:20:30;14.40;;;4.50;;
39860;SDS011;25529;49.346;20.886;2022-08-26T12:23:18;16.90;;;4.50;;
39860;SDS011;25529;49.346;20.886;2022-08-26T12:25:48;13.93;;;4.47;;
39860;SDS011;25529;49.346;20.886;2022-08-26T12:28:20;15.02;;;4.20;;
39860;SDS011;25529;49.346;20.886;2022-08-26T12:31:02;15.85;;;4.47;;
39860;SDS011;25529;49.346;20.886;2022-08-26T12:33:27;15.27;;;5.10;;
39860;SDS011;25529;49.346;20.886;2022-08-26T12:35:54;18.00;;;4.68;;
39860;SDS011;25529;49.346;20.886;2022-08-26T12:38:20;15.65;;;4.88;;
39860;SDS011;25529;49.346;20.886;2022-08-26T12:40:45;14.98;;;4.53;;
39860;SDS011;25529;49.346;20.886;2022-08-26T12:43:13;12.40;;;4.38;;
39860;SDS011;25529;49.346;20.886;2022-08-26T12:45:56;18.55;;;4.45;;
39860;SDS011;25529;49.346;20.886;2022-08-26T12:48:34;17.33;;;4.78;;
39860;SDS011;25529;49.346;20.886;2022-08-26T12:51:02;9.43;;;4.15;;
39860;SDS011;25529;49.346;20.886;2022-08-26T12:53:33;18.67;;;4.80;;
39860;SDS011;25529;49.346;20.886;2022-08-26T12:58:59;19.33;;;4.57;;
39860;SDS011;25529;49.346;20.886;2022-08-26T13:01:25;16.35;;;4.90;;
39860;SDS011;25529;49.346;20.886;2022-08-26T13:03:50;15.63;;;4.72;;
39860;SDS011;25529;49.346;20.886;2022-08-26T13:11:14;14.65;;;4.95;;
39860;SDS011;25529;49.346;20.886;2022-08-26T13:13:48;15.85;;;5.00;;
39860;SDS011;25529;49.346;20.886;2022-08-26T13:16:17;17.45;;;5.18;;
39860;SDS011;25529;49.346;20.886;2022-08-26T13:18:47;17.48;;;4.70;;
39860;SDS011;25529;49.346;20.886;2022-08-26T13:21:22;19.13;;;5.00;;
39860;SDS011;25529;49.346;20.886;2022-08-26T13:27:22;18.45;;;5.03;;
39860;SDS011;25529;49.346;20.886;2022-08-26T13:30:03;17.23;;;5.03;;
39860;SDS011;25529;49.346;20.886;2022-08-26T13:32:41;16.80;;;5.25;;
39860;SDS011;25529;49.346;20.886;2022-08-26T13:35:07;15.40;;;4.80;;
39860;SDS011;25529;49.346;20.886;2022-08-26T13:37:35;17.35;;;4.70;;
39860;SDS011;25529;49.346;20.886;2022-08-26T13:40:03;17.88;;;5.22;;
39860;SDS011;25529;49.346;20.886;2022-08-26T13:42:36;13.68;;;4.85;;
39860;SDS011;25529;49.346;20.886;2022-08-26T13:45:08;16.73;;;5.05;;
39860;SDS011;25529;49.346;20.886;2022-08-26T13:47:37;17.00;;;5.03;;
39860;SDS011;25529;49.346;20.886;2022-08-26T13:50:06;19.00;;;5.30;;
39860;SDS011;25529;49.346;20.886;2022-08-26T13:52:36;15.23;;;4.78;;
39860;SDS011;25529;49.346;20.886;2022-08-26T13:55:02;15.13;;;5.10;;
39860;SDS011;25529;49.346;20.886;2022-08-26T13:57:30;20.83;;;5.50;;
39860;SDS011;25529;49.346;20.886;2022-08-26T13:59:59;17.90;;;5.15;;
39860;SDS011;25529;49.346;20.886;2022-08-26T14:02:27;18.45;;;5.07;;
39860;SDS011;25529;49.346;20.886;2022-08-26T14:04:53;14.05;;;5.40;;
39860;SDS011;25529;49.346;20.886;2022-08-26T14:07:22;19.17;;;5.47;;
39860;SDS011;25529;49.346;20.886;2022-08-26T14:09:52;20.25;;;5.82;;
39860;SDS011;25529;49.346;20.886;2022-08-26T14:12:20;18.55;;;5.43;;
39860;SDS011;25529;49.346;20.886;2022-08-26T14:14:45;14.70;;;5.15;;
39860;SDS011;25529;49.346;20.886;2022-08-26T14:17:12;17.98;;;5.60;;
39860;SDS011;25529;49.346;20.886;2022-08-26T14:19:42;13.38;;;4.97;;
39860;SDS011;25529;49.346;20.886;2022-08-26T14:22:13;18.58;;;5.32;;
39860;SDS011;25529;49.346;20.886;2022-08-26T14:24:39;19.08;;;5.43;;
39860;SDS011;25529;49.346;20.886;2022-08-26T14:27:04;15.35;;;5.10;;
39860;SDS011;25529;49.346;20.886;2022-08-26T14:29:30;18.13;;;5.50;;
39860;SDS011;25529;49.346;20.886;2022-08-26T14:32:05;14.30;;;5.50;;
39860;SDS011;25529;49.346;20.886;2022-08-26T14:34:36;17.55;;;5.40;;
39860;SDS011;25529;49.346;20.886;2022-08-26T14:37:01;17.75;;;5.53;;
39860;SDS011;25529;49.346;20.886;2022-08-26T14:39:31;16.85;;;6.20;;
39860;SDS011;25529;49.346;20.886;2022-08-26T14:41:56;26.10;;;7.65;;
39860;SDS011;25529;49.346;20.886;2022-08-26T14:44:27;21.38;;;6.50;;
39860;SDS011;25529;49.346;20.886;2022-08-26T14:46:58;20.42;;;6.15;;
39860;SDS011;25529;49.346;20.886;2022-08-26T14:49:24;18.85;;;6.40;;
39860;SDS011;25529;49.346;20.886;2022-08-26T14:51:51;18.75;;;6.05;;
39860;SDS011;25529;49.346;20.886;2022-08-26T14:54:17;16.25;;;5.68;;
39860;SDS011;25529;49.346;20.886;2022-08-26T14:57:01;16.75;;;6.05;;
39860;SDS011;25529;49.346;20.886;2022-08-26T14:59:32;16.50;;;5.70;;
39860;SDS011;25529;49.346;20.886;2022-08-26T15:02:01;17.40;;;5.63;;
39860;SDS011;25529;49.346;20.886;2022-08-26T15:04:28;17.13;;;5.78;;
39860;SDS011;25529;49.346;20.886;2022-08-26T15:06:54;17.58;;;5.68;;
39860;SDS011;25529;49.346;20.886;2022-08-26T15:09:23;18.90;;;5.70;;
39860;SDS011;25529;49.346;20.886;2022-08-26T15:11:48;17.95;;;5.93;;
39860;SDS011;25529;49.346;20.886;2022-08-26T15:14:14;20.13;;;5.30;;
39860;SDS011;25529;49.346;20.886;2022-08-26T15:16:40;18.48;;;5.65;;
39860;SDS011;25529;49.346;20.886;2022-08-26T15:19:05;19.73;;;5.32;;
39860;SDS011;25529;49.346;20.886;2022-08-26T15:21:31;20.20;;;5.75;;
39860;SDS011;25529;49.346;20.886;2022-08-26T15:23:57;18.05;;;5.57;;
39860;SDS011;25529;49.346;20.886;2022-08-26T15:26:24;19.88;;;5.43;;
39860;SDS011;25529;49.346;20.886;2022-08-26T15:28:50;16.73;;;5.30;;
39860;SDS011;25529;49.346;20.886;2022-08-26T15:31:17;19.17;;;6.05;;
39860;SDS011;25529;49.346;20.886;2022-08-26T15:33:43;15.48;;;5.50;;
39860;SDS011;25529;49.346;20.886;2022-08-26T15:36:08;20.00;;;5.90;;
39860;SDS011;25529;49.346;20.886;2022-08-26T15:38:35;16.95;;;5.63;;
39860;SDS011;25529;49.346;20.886;2022-08-26T15:41:01;12.10;;;5.18;;
39860;SDS011;25529;49.346;20.886;2022-08-26T15:43:27;13.00;;;5.00;;
39860;SDS011;25529;49.346;20.886;2022-08-26T15:45:53;15.75;;;5.13;;
39860;SDS011;25529;49.346;20.886;2022-08-26T15:48:19;20.67;;;5.45;;
39860;SDS011;25529;49.346;20.886;2022-08-26T15:50:51;16.60;;;5.30;;
39860;SDS011;25529;49.346;20.886;2022-08-26T15:53:27;17.02;;;5.60;;
39860;SDS011;25529;49.346;20.886;2022-08-26T15:55:57;13.95;;;4.80;;
39860;SDS011;25529;49.346;20.886;2022-08-26T15:58:23;18.65;;;5.55;;
39860;SDS011;25529;49.346;20.886;2022-08-26T16:00:49;15.20;;;5.03;;
39860;SDS011;25529;49.346;20.886;2022-08-26T16:03:15;16.23;;;5.18;;
39860;SDS011;25529;49.346;20.886;2022-08-26T16:05:41;16.98;;;5.38;;
39860;SDS011;25529;49.346;20.886;2022-08-26T16:08:07;19.35;;;5.53;;
39860;SDS011;25529;49.346;20.886;2022-08-26T16:10:34;16.40;;;5.30;;
39860;SDS011;25529;49.346;20.886;2022-08-26T16:13:00;15.48;;;4.85;;
39860;SDS011;25529;49.346;20.886;2022-08-26T16:15:25;17.50;;;5.20;;
39860;SDS011;25529;49.346;20.886;2022-08-26T16:17:51;17.75;;;5.63;;
39860;SDS011;25529;49.346;20.886;2022-08-26T16:20:16;18.58;;;5.30;;
39860;SDS011;25529;49.346;20.886;2022-08-26T16:22:43;16.42;;;5.28;;
39860;SDS011;25529;49.346;20.886;2022-08-26T16:25:08;16.63;;;5.20;;
39860;SDS011;25529;49.346;20.886;2022-08-26T16:27:35;20.92;;;5.40;;
39860;SDS011;25529;49.346;20.886;2022-08-26T16:30:03;17.65;;;5.22;;
39860;SDS011;25529;49.346;20.886;2022-08-26T16:32:40;16.77;;;5.43;;
39860;SDS011;25529;49.346;20.886;2022-08-26T16:35:11;15.30;;;5.00;;
39860;SDS011;25529;49.346;20.886;2022-08-26T16:37:51;16.55;;;5.28;;
39860;SDS011;25529;49.346;20.886;2022-08-26T16:40:24;14.02;;;5.03;;
39860;SDS011;25529;49.346;20.886;2022-08-26T16:42:51;16.45;;;5.32;;
39860;SDS011;25529;49.346;20.886;2022-08-26T16:45:24;16.05;;;6.32;;
39860;SDS011;25529;49.346;20.886;2022-08-26T16:47:51;14.45;;;5.40;;
39860;SDS011;25529;49.346;20.886;2022-08-26T16:50:17;21.85;;;5.50;;
39860;SDS011;25529;49.346;20.886;2022-08-26T16:52:43;13.38;;;4.97;;
39860;SDS011;25529;49.346;20.886;2022-08-26T16:55:10;17.85;;;5.80;;
39860;SDS011;25529;49.346;20.886;2022-08-26T16:57:36;16.05;;;5.43;;
39860;SDS011;25529;49.346;20.886;2022-08-26T17:00:05;16.92;;;5.82;;